Time;durP1;ratioP1;P1;durP2;ratioP2;P2;SDS_P1;SDS_P2;PMS_P1;PMS_P2;Temp;Humidity;BMP_temperature;BMP_pressure;BME280_temperature;BME280_humidity;BME280_pressure;Samples;Min_cycle;Max_cycle;Signal;HPM_P1;HPM_P2
2021/12/10 00:01:47;;;;;;;21.97;9.77;;;;;;;0.40;100.00;99757.66;10506572;28;20219;-67
2021/12/10 00:06:54;;;;;;;22.10;10.53;;;;;;;0.41;100.00;99756.81;10505842;28;20619;-69
2021/12/10 00:12:06;;;;;;;27.27;10.90;;;;;;;0.45;100.00;99748.41;10505824;28;20216;-66
2021/12/10 00:17:12;;;;;;;29.50;11.30;;;;;;;0.46;100.00;99750.09;10505374;28;20235;-66
2021/12/10 00:22:20;;;;;;;27.17;12.03;;;;;;;0.44;100.00;99721.13;10505485;28;20346;-66
2021/12/10 00:27:29;;;;;;;26.07;10.57;;;;;;;0.37;100.00;99726.94;10504957;28;20242;-65
2021/12/10 00:32:36;;;;;;;25.23;9.00;;;;;;;0.36;100.00;99708.25;10505040;28;20230;-66
2021/12/10 00:37:39;;;;;;;26.33;9.90;;;;;;;0.37;100.00;99703.97;10502747;28;20234;-68
2021/12/10 00:42:44;;;;;;;23.93;11.07;;;;;;;0.43;100.00;99689.63;10501596;28;20311;-65
2021/12/10 00:47:49;;;;;;;29.27;11.43;;;;;;;0.39;100.00;99687.00;10501202;28;20319;-68
2021/12/10 00:52:54;;;;;;;30.87;10.63;;;;;;;0.34;100.00;99678.41;10500996;28;20212;-66
2021/12/10 00:58:00;;;;;;;26.37;10.90;;;;;;;0.45;100.00;99676.94;10500890;28;20669;-65
2021/12/10 01:03:04;;;;;;;28.77;10.73;;;;;;;0.52;100.00;99671.13;10500565;28;20228;-66
2021/12/10 01:08:10;;;;;;;32.20;12.10;;;;;;;0.47;100.00;99647.16;10150381;28;9999785;-65
2021/12/10 01:13:19;;;;;;;29.43;10.67;;;;;;;0.51;100.00;99651.50;10500077;28;20302;-66
2021/12/10 01:23:53;;;;;;;28.73;11.27;;;;;;;0.45;100.00;99659.06;10499757;28;20203;-65
2021/12/10 01:29:00;;;;;;;31.00;13.03;;;;;;;0.51;100.00;99641.31;10499546;28;20224;-69
2021/12/10 01:34:04;;;;;;;30.40;12.17;;;;;;;0.59;100.00;99632.94;10499579;28;20559;-69
2021/12/10 01:39:14;;;;;;;32.87;13.00;;;;;;;0.52;100.00;99632.84;10502220;28;20227;-66
2021/12/10 01:44:27;;;;;;;32.20;11.63;;;;;;;0.55;100.00;99622.66;10502227;28;20220;-68
2021/12/10 01:49:30;;;;;;;29.53;11.87;;;;;;;0.57;100.00;99623.56;10501141;28;20226;-69
2021/12/10 01:54:39;;;;;;;30.17;12.00;;;;;;;0.52;100.00;99608.16;10499713;28;20208;-64
2021/12/10 01:59:46;;;;;;;30.23;12.27;;;;;;;0.57;100.00;99613.34;10498667;28;20215;-66
2021/12/10 02:04:50;;;;;;;29.70;10.47;;;;;;;0.62;100.00;99610.03;10498292;28;20220;-66
2021/12/10 02:09:54;;;;;;;31.60;11.53;;;;;;;0.60;100.00;99608.28;10498038;28;20249;-68
2021/12/10 02:15:03;;;;;;;26.80;11.80;;;;;;;0.44;100.00;99608.84;10498220;28;20238;-65
2021/12/10 02:20:11;;;;;;;37.43;12.27;;;;;;;0.43;100.00;99597.78;10498474;28;20242;-65
2021/12/10 02:25:19;;;;;;;27.30;10.73;;;;;;;0.54;100.00;99580.09;10169886;27;10000458;-66
2021/12/10 02:30:24;;;;;;;33.13;12.47;;;;;;;0.59;100.00;99568.25;10539532;28;20223;-66
2021/12/10 02:35:28;;;;;;;30.17;11.27;;;;;;;0.61;100.00;99576.81;10540002;28;20324;-66
2021/12/10 02:40:35;;;;;;;24.33;10.60;;;;;;;0.68;100.00;99553.97;10539284;28;20523;-66
2021/12/10 02:45:41;;;;;;;24.47;9.73;;;;;;;0.72;100.00;99544.66;10539125;28;20233;-64
2021/12/10 02:50:45;;;;;;;24.43;10.33;;;;;;;0.71;100.00;99532.72;10538963;28;20219;-68
2021/12/10 02:55:50;;;;;;;24.47;10.70;;;;;;;0.75;100.00;99544.72;10539045;28;20298;-65
2021/12/10 03:00:58;;;;;;;21.60;10.03;;;;;;;0.74;100.00;99565.97;10544847;28;20588;-67
2021/12/10 03:06:01;;;;;;;25.37;10.17;;;;;;;0.73;100.00;99561.69;10547261;28;20244;-65
2021/12/10 03:11:06;;;;;;;26.97;11.87;;;;;;;0.73;100.00;99569.34;10547118;28;20215;-64
2021/12/10 03:16:10;;;;;;;26.87;11.27;;;;;;;0.74;100.00;99555.78;10546686;28;20211;-66
2021/12/10 03:21:14;;;;;;;30.30;11.53;;;;;;;0.71;100.00;99548.03;10546648;28;20227;-67
2021/12/10 03:26:21;;;;;;;23.97;9.83;;;;;;;0.70;100.00;99542.09;10513547;28;20224;-66
2021/12/10 03:31:27;;;;;;;22.53;9.90;;;;;;;0.72;100.00;99531.91;10504177;28;20226;-68
2021/12/10 03:36:30;;;;;;;24.80;9.73;;;;;;;0.79;100.00;99515.84;10504356;28;20387;-65
2021/12/10 03:41:35;;;;;;;23.00;9.30;;;;;;;0.82;100.00;99511.63;10503635;28;20230;-67
2021/12/10 03:46:39;;;;;;;19.73;8.73;;;;;;;0.90;100.00;99504.06;10503625;28;20216;-65
2021/12/10 03:51:44;;;;;;;20.43;8.60;;;;;;;0.87;100.00;99501.47;10503604;28;20238;-67
2021/12/10 03:56:50;;;;;;;22.17;9.03;;;;;;;0.86;100.00;99503.16;10503146;28;20729;-65
2021/12/10 04:01:56;;;;;;;21.73;9.43;;;;;;;0.94;100.00;99498.19;10503293;28;20298;-63
2021/12/10 04:07:04;;;;;;;18.70;7.97;;;;;;;0.92;100.00;99500.72;10502921;28;20657;-68
2021/12/10 04:12:10;;;;;;;21.13;9.43;;;;;;;0.93;100.00;99493.91;10501846;28;20226;-66
2021/12/10 04:17:14;;;;;;;19.97;8.10;;;;;;;0.95;100.00;99482.88;10502822;28;20251;-65
2021/12/10 04:22:19;;;;;;;18.23;8.00;;;;;;;0.89;100.00;99484.50;10502283;28;20254;-66
2021/12/10 04:27:23;;;;;;;19.27;9.20;;;;;;;0.94;100.00;99480.31;10543367;28;20258;-66
2021/12/10 04:32:28;;;;;;;19.90;8.43;;;;;;;0.93;100.00;99464.09;10543942;28;20272;-66
2021/12/10 04:37:31;;;;;;;14.63;6.63;;;;;;;0.97;100.00;99477.78;10543422;28;20227;-67
2021/12/10 04:42:36;;;;;;;18.40;7.13;;;;;;;0.99;100.00;99471.00;10543288;28;20211;-68
2021/12/10 04:47:40;;;;;;;19.80;7.63;;;;;;;0.97;100.00;99470.97;10543487;28;20225;-65
2021/12/10 04:52:45;;;;;;;21.53;8.17;;;;;;;1.02;100.00;99468.47;10542741;28;20309;-66
2021/12/10 04:57:50;;;;;;;15.70;7.27;;;;;;;0.99;100.00;99468.44;10542907;28;20390;-67
2021/12/10 05:02:54;;;;;;;23.47;8.43;;;;;;;1.03;100.00;99457.44;10542422;28;20215;-66
2021/12/10 05:07:58;;;;;;;21.60;8.50;;;;;;;1.14;100.00;99451.63;10542201;28;20215;-66
2021/12/10 05:13:03;;;;;;;14.53;6.77;;;;;;;1.17;100.00;99448.25;10542245;28;20223;-64
2021/12/10 05:18:08;;;;;;;17.07;7.20;;;;;;;1.19;100.00;99451.69;10544332;28;20223;-66
2021/12/10 05:23:14;;;;;;;15.20;6.20;;;;;;;1.25;100.00;99444.09;10544842;28;20215;-66
2021/12/10 05:28:19;;;;;;;18.80;7.87;;;;;;;1.29;100.00;99445.00;10544661;28;20231;-64
2021/12/10 05:33:23;;;;;;;22.33;9.90;;;;;;;1.27;100.00;99433.88;10545495;28;20233;-69
2021/12/10 05:38:26;;;;;;;16.57;6.47;;;;;;;1.28;100.00;99426.22;10544348;28;20228;-67
2021/12/10 05:43:32;;;;;;;15.83;7.27;;;;;;;1.34;100.00;99431.44;10544287;28;20218;-69
2021/12/10 05:48:35;;;;;;;17.20;7.60;;;;;;;1.35;100.00;99434.84;10544133;28;20238;-71
2021/12/10 05:53:39;;;;;;;19.03;6.00;;;;;;;1.42;100.00;99431.50;10543903;28;20211;-68
2021/12/10 05:58:44;;;;;;;13.73;6.17;;;;;;;1.38;100.00;99440.00;10543106;28;20219;-68
2021/12/10 06:03:54;;;;;;;17.87;6.40;;;;;;;1.35;100.00;99438.25;10543739;28;20648;-67
2021/12/10 06:08:59;;;;;;;14.87;6.77;;;;;;;1.36;100.00;99447.66;10543062;28;20216;-66
2021/12/10 06:14:05;;;;;;;16.67;6.33;;;;;;;1.37;100.00;99445.94;10543584;28;20532;-69
2021/12/10 06:19:09;;;;;;;14.47;5.77;;;;;;;1.33;100.00;99450.13;10542873;28;20232;-70
2021/12/10 06:24:12;;;;;;;13.90;6.07;;;;;;;1.36;100.00;99446.78;10542566;28;20227;-66
2021/12/10 06:29:17;;;;;;;14.83;6.10;;;;;;;1.35;100.00;99451.03;10542912;28;20238;-67
2021/12/10 06:34:21;;;;;;;18.17;6.80;;;;;;;1.39;100.00;99455.34;10541876;28;20215;-69
2021/12/10 06:39:24;;;;;;;17.43;6.93;;;;;;;1.35;100.00;99455.31;10542221;28;20545;-70
2021/12/10 06:44:29;;;;;;;13.70;5.97;;;;;;;1.37;100.00;99445.94;10541991;28;20207;-67
2021/12/10 06:49:32;;;;;;;15.67;6.53;;;;;;;1.45;100.00;99464.78;10541962;28;20233;-65
2021/12/10 06:54:38;;;;;;;15.63;7.03;;;;;;;1.43;100.00;99464.78;10541728;28;20227;-67
2021/12/10 06:59:43;;;;;;;15.77;7.00;;;;;;;1.46;100.00;99467.34;10541779;28;20219;-67
2021/12/10 07:04:47;;;;;;;15.83;7.07;;;;;;;1.46;100.00;99477.56;10542000;28;20218;-68
2021/12/10 07:09:50;;;;;;;15.37;6.73;;;;;;;1.48;100.00;99465.69;10541766;28;20205;-67
2021/12/10 07:14:56;;;;;;;15.83;7.00;;;;;;;1.53;100.00;99461.47;10541718;28;20664;-68
2021/12/10 07:19:59;;;;;;;16.77;7.40;;;;;;;1.56;100.00;99466.63;10541273;28;20228;-67
2021/12/10 07:25:03;;;;;;;16.33;7.60;;;;;;;1.49;100.00;99472.50;10142095;27;10000013;-66
2021/12/10 07:30:12;;;;;;;16.40;7.97;;;;;;;1.43;100.00;99467.31;10517878;28;20216;-65
2021/12/10 07:35:15;;;;;;;18.17;8.47;;;;;;;1.41;100.00;99468.13;10495467;28;20222;-66
2021/12/10 07:40:22;;;;;;;20.37;7.97;;;;;;;1.41;100.00;99475.81;10496109;28;20232;-66
2021/12/10 07:45:27;;;;;;;18.50;8.77;;;;;;;1.41;100.00;99466.44;10497087;28;20673;-68
2021/12/10 07:50:34;;;;;;;17.30;8.30;;;;;;;1.43;100.00;99469.88;10503321;28;20303;-66
2021/12/10 07:55:40;;;;;;;18.27;9.23;;;;;;;1.46;100.00;99480.13;10502709;28;20234;-66
2021/12/10 08:00:47;;;;;;;18.50;9.03;;;;;;;1.49;100.00;99480.16;10502807;28;20228;-69
2021/12/10 08:05:51;;;;;;;22.17;9.60;;;;;;;1.52;100.00;99481.91;10503105;28;20224;-66
2021/12/10 08:10:55;;;;;;;23.97;9.63;;;;;;;1.59;100.00;99478.59;10502500;28;20230;-64
2021/12/10 08:16:00;;;;;;;19.93;9.43;;;;;;;1.64;100.00;99487.16;10501831;28;20601;-69
2021/12/10 08:21:05;;;;;;;19.70;9.20;;;;;;;1.65;100.00;99493.97;10502396;28;20227;-65
2021/12/10 08:26:10;;;;;;;24.27;9.70;;;;;;;1.64;100.00;99482.03;10486482;28;20233;-66
2021/12/10 08:31:16;;;;;;;24.87;9.50;;;;;;;1.67;100.00;99477.81;10460410;28;20234;-66
2021/12/10 08:36:22;;;;;;;25.37;11.63;;;;;;;1.73;100.00;99480.44;10460423;28;20300;-68
2021/12/10 08:41:28;;;;;;;229.13;124.30;;;;;;;1.74;100.00;99477.06;10459698;28;20769;-65
2021/12/10 08:46:34;;;;;;;25.07;11.60;;;;;;;1.86;100.00;99484.84;10460043;28;20227;-67
2021/12/10 08:51:41;;;;;;;22.60;11.40;;;;;;;1.86;100.00;99491.66;10460602;28;20225;-68
2021/12/10 08:56:48;;;;;;;23.83;10.80;;;;;;;1.88;100.00;99488.25;10481351;28;20235;-67
2021/12/10 09:01:57;;;;;;;21.57;10.13;;;;;;;1.86;100.00;99495.09;10500782;28;20234;-67
2021/12/10 09:07:06;;;;;;;22.20;11.43;;;;;;;1.85;100.00;99498.47;10499822;28;20216;-66
2021/12/10 09:12:14;;;;;;;22.47;11.97;;;;;;;1.87;100.00;99478.00;10500342;28;20277;-67
2021/12/10 09:17:24;;;;;;;21.30;11.50;;;;;;;1.92;100.00;99489.16;10499581;28;20250;-67
2021/12/10 09:22:29;;;;;;;25.33;12.33;;;;;;;1.90;100.00;99475.47;10499585;28;20228;-65
2021/12/10 09:27:32;;;;;;;25.17;13.27;;;;;;;1.93;100.00;99484.03;10487884;28;20238;-67
2021/12/10 09:32:38;;;;;;;28.00;14.27;;;;;;;1.93;100.00;99484.03;10457937;28;20689;-67
2021/12/10 09:37:42;;;;;;;30.23;14.97;;;;;;;1.89;100.00;99477.19;10457582;28;20221;-67
2021/12/10 09:42:46;;;;;;;39.40;17.97;;;;;;;1.99;100.00;99488.38;10457654;28;20234;-67
2021/12/10 09:47:51;;;;;;;36.17;16.33;;;;;;;1.96;100.00;99490.91;10457168;28;20195;-66
2021/12/10 09:52:55;;;;;;;37.83;17.77;;;;;;;1.97;100.00;99480.69;10457120;28;20283;-66
2021/12/10 09:57:59;;;;;;;39.73;19.50;;;;;;;1.98;100.00;99476.44;10456984;28;20207;-66
2021/12/10 10:03:06;;;;;;;40.90;19.90;;;;;;;1.99;100.00;99476.44;10456549;28;20240;-65
2021/12/10 10:08:13;;;;;;;42.27;20.50;;;;;;;2.02;100.00;99496.09;10474371;28;20242;-66
2021/12/10 10:13:19;;;;;;;40.03;17.93;;;;;;;2.04;100.00;99479.03;10497767;28;20204;-66
2021/12/10 10:18:26;;;;;;;47.53;21.23;;;;;;;2.06;100.00;99460.31;10497200;28;20184;-67
2021/12/10 10:23:30;;;;;;;47.23;21.17;;;;;;;2.08;100.00;99465.44;10497727;28;20212;-67
2021/12/10 10:28:33;;;;;;;43.10;20.80;;;;;;;2.09;100.00;99455.22;10512594;28;20230;-66
2021/12/10 10:33:41;;;;;;;41.37;20.93;;;;;;;2.10;100.00;99449.28;10497503;28;20192;-67
2021/12/10 10:38:47;;;;;;;38.03;18.80;;;;;;;2.11;100.00;99474.00;10497087;28;20226;-66
2021/12/10 10:43:51;;;;;;;40.47;20.23;;;;;;;2.12;100.00;99465.47;10497139;28;20222;-65
2021/12/10 10:48:55;;;;;;;48.57;21.40;;;;;;;2.17;100.00;99460.41;10476167;28;20228;-65
2021/12/10 10:54:02;;;;;;;48.60;21.33;;;;;;;2.14;100.00;99465.50;10455838;28;20203;-63
2021/12/10 10:59:14;;;;;;;42.23;19.37;;;;;;;2.18;100.00;99474.91;10455522;28;20199;-69
2021/12/10 11:04:27;;;;;;;40.67;18.93;;;;;;;2.18;100.00;99462.09;10455479;28;20193;-66
2021/12/10 11:09:36;;;;;;;45.07;18.33;;;;;;;2.18;100.00;99457.84;10455491;28;20199;-67
2021/12/10 11:14:42;;;;;;;49.70;21.07;;;;;;;2.29;100.00;99453.69;10454940;28;20196;-65
2021/12/10 11:19:52;;;;;;;39.83;18.77;;;;;;;2.33;100.00;99452.84;10457348;28;20220;-68
2021/12/10 11:24:58;;;;;;;37.80;18.10;;;;;;;2.34;100.00;99448.59;10463509;28;20312;-68
2021/12/10 11:30:13;;;;;;;42.27;19.43;;;;;;;2.35;100.00;99450.31;10465244;28;20192;-65
2021/12/10 11:35:21;;;;;;;40.73;18.50;;;;;;;2.34;100.00;99448.59;10546331;28;20203;-66
2021/12/10 11:40:51;;;;;;;38.07;18.43;;;;;;;2.34;100.00;99446.91;10491942;28;20217;-66
2021/12/10 11:46:05;;;;;;;35.87;18.27;;;;;;;2.34;100.00;99443.47;10462053;28;20203;-65
2021/12/10 11:51:13;;;;;;;39.47;18.27;;;;;;;2.36;100.00;99450.31;10462232;28;20235;-66
2021/12/10 11:56:20;;;;;;;38.67;19.03;;;;;;;2.35;100.00;99470.78;10463555;28;20220;-66
2021/12/10 12:01:24;;;;;;;40.13;18.80;;;;;;;2.31;100.00;99466.50;10464817;28;20231;-70
2021/12/10 12:06:29;;;;;;;43.77;18.30;;;;;;;2.30;100.00;99463.09;10464444;28;20197;-64
2021/12/10 12:11:32;;;;;;;41.70;20.03;;;;;;;2.32;100.00;99465.66;10464596;28;20275;-67
2021/12/10 12:16:36;;;;;;;37.63;18.93;;;;;;;2.34;100.00;99454.59;10464364;28;20193;-65
2021/12/10 12:27:19;;;;;;;49.57;20.53;;;;;;;2.36;100.00;99463.13;10463498;28;20263;-65
2021/12/10 12:32:46;;;;;;;39.87;17.70;;;;;;;2.34;100.00;99457.16;10462805;28;20217;-67
2021/12/10 12:37:51;;;;;;;41.80;18.60;;;;;;;2.35;100.00;99470.78;10463486;28;20243;-67
2021/12/10 12:43:14;;;;;;;45.93;19.97;;;;;;;2.33;100.00;99457.97;10504327;28;20664;-65
2021/12/10 12:48:33;;;;;;;43.27;20.13;;;;;;;2.34;100.00;99457.16;10501908;28;20212;-66
2021/12/10 12:53:38;;;;;;;39.67;20.27;;;;;;;2.35;100.00;99461.41;10479701;28;20221;-69
2021/12/10 12:58:48;;;;;;;46.57;20.70;;;;;;;2.35;100.00;99451.16;10462836;28;20235;-65
2021/12/10 13:03:57;;;;;;;47.37;20.67;;;;;;;2.34;100.00;99471.66;10462581;28;20316;-66
2021/12/10 13:09:28;;;;;;;45.07;20.20;;;;;;;2.31;100.00;99463.94;10462143;28;20227;-65
2021/12/10 13:14:45;;;;;;;49.67;19.83;;;;;;;2.32;100.00;99452.84;10461881;28;20221;-65
2021/12/10 13:19:48;;;;;;;57.35;29.73;;;;;;;2.36;100.00;99478.47;10459042;28;20871;-66
2021/12/10 13:24:59;;;;;;;53.10;24.37;;;;;;;2.44;100.00;99464.88;10461322;28;20236;-66
2021/12/10 13:30:04;;;;;;;49.30;21.27;;;;;;;2.49;100.00;99461.50;10461404;28;20234;-64
2021/12/10 13:35:10;;;;;;;54.90;22.40;;;;;;;2.46;100.00;99455.50;10461213;28;20224;-63
2021/12/10 13:40:16;;;;;;;50.90;21.67;;;;;;;2.45;100.00;99458.94;10461295;28;20296;-65
2021/12/10 13:45:20;;;;;;;52.10;21.63;;;;;;;2.45;100.00;99443.56;10459926;28;20366;-66
2021/12/10 13:50:26;;;;;;;47.20;21.57;;;;;;;2.44;100.00;99445.25;10470107;28;20224;-65
2021/12/10 13:55:34;;;;;;;46.47;20.93;;;;;;;2.46;100.00;99447.81;10501624;28;20549;-66
2021/12/10 14:00:38;;;;;;;54.00;22.23;;;;;;;2.45;100.00;99438.44;10500687;28;20630;-65
2021/12/10 14:05:43;;;;;;;52.00;22.93;;;;;;;2.47;100.00;99437.59;10501278;28;20220;-65
2021/12/10 14:10:51;;;;;;;51.47;22.27;;;;;;;2.45;100.00;99451.25;10500654;28;20545;-65
2021/12/10 14:16:04;;;;;;;51.67;22.60;;;;;;;2.46;100.00;99463.19;10501158;28;20548;-69
2021/12/10 14:21:28;;;;;;;52.80;22.47;;;;;;;2.43;100.00;99474.28;10500175;28;20231;-68
2021/12/10 14:27:04;;;;;;;56.17;21.97;;;;;;;2.42;100.00;99472.56;10500639;28;20239;-64
2021/12/10 14:32:28;;;;;;;65.23;27.83;;;;;;;2.44;100.00;99487.91;10500362;28;20598;-65
2021/12/10 14:37:59;;;;;;;54.67;23.07;;;;;;;2.42;100.00;99487.06;10500618;28;20581;-63
2021/12/10 14:43:28;;;;;;;54.00;23.53;;;;;;;2.39;100.00;99493.00;10499799;28;20673;-64
2021/12/10 14:48:32;;;;;;;63.87;24.37;;;;;;;2.38;100.00;99482.75;10499958;28;20307;-65
2021/12/10 14:54:05;;;;;;;57.20;25.07;;;;;;;2.38;100.00;99495.56;10500870;28;20770;-65
2021/12/10 14:59:37;;;;;;;59.80;25.30;;;;;;;2.31;100.00;99515.13;10508737;28;20566;-63
2021/12/10 15:05:05;;;;;;;60.60;23.27;;;;;;;2.31;100.00;99513.41;10507671;28;20645;-63
2021/12/10 15:10:31;;;;;;;59.83;25.00;;;;;;;2.30;100.00;99505.72;10507822;28;20683;-65
2021/12/10 15:16:01;;;;;;;55.30;24.40;;;;;;;2.30;100.00;99518.53;10466805;28;20379;-64
2021/12/10 15:21:32;;;;;;;50.70;23.90;;;;;;;2.28;100.00;99520.22;10470096;28;20211;-65
2021/12/10 15:26:41;;;;;;;55.10;23.47;;;;;;;2.27;100.00;99519.38;10506250;28;20573;-65
2021/12/10 15:31:47;;;;;;;57.23;23.70;;;;;;;2.30;100.00;99518.53;10506616;28;20317;-66
2021/12/10 15:36:52;;;;;;;55.73;26.13;;;;;;;2.29;100.00;99522.81;10507337;28;20216;-66
2021/12/10 15:41:56;;;;;;;58.03;26.23;;;;;;;2.29;100.00;99522.81;10506124;28;20230;-66
2021/12/10 15:47:01;;;;;;;60.73;26.33;;;;;;;2.30;100.00;99528.75;10506988;28;20199;-65
2021/12/10 15:52:08;;;;;;;64.17;27.23;;;;;;;2.28;100.00;99526.19;10505504;28;20196;-65
2021/12/10 15:57:15;;;;;;;54.97;24.90;;;;;;;2.30;100.00;99532.19;10506198;28;20410;-67
2021/12/10 16:02:22;;;;;;;54.03;23.87;;;;;;;2.31;100.00;99535.63;10505763;28;20287;-64
2021/12/10 16:07:28;;;;;;;59.20;25.43;;;;;;;2.28;100.00;99540.69;10504585;28;20221;-65
2021/12/10 16:12:32;;;;;;;59.17;24.60;;;;;;;2.25;100.00;99546.66;10505389;28;20192;-65
2021/12/10 16:17:37;;;;;;;60.60;24.50;;;;;;;2.25;100.00;99541.53;10505993;28;20200;-65
2021/12/10 16:22:40;;;;;;;59.27;25.97;;;;;;;2.25;100.00;99540.66;10505109;28;20220;-65
2021/12/10 16:27:48;;;;;;;64.85;32.58;;;;;;;2.25;100.00;99538.97;10503254;28;20424;-65
2021/12/10 16:32:56;;;;;;;58.70;28.03;;;;;;;2.20;100.00;99543.19;10504792;28;20200;-66
2021/12/10 16:38:03;;;;;;;59.67;25.70;;;;;;;2.23;100.00;99560.25;10481820;28;20196;-65
2021/12/10 16:43:08;;;;;;;55.97;25.47;;;;;;;2.21;100.00;99555.13;10504322;28;20661;-64
2021/12/10 16:48:21;;;;;;;54.17;24.33;;;;;;;2.25;100.00;99550.91;10504836;28;20210;-68
2021/12/10 16:53:33;;;;;;;60.33;24.87;;;;;;;2.26;100.00;99543.22;10503524;28;20537;-64
2021/12/10 16:58:37;;;;;;;63.83;24.77;;;;;;;2.25;100.00;99546.66;10504118;28;20188;-66
2021/12/10 17:03:42;;;;;;;60.63;24.73;;;;;;;2.25;100.00;99553.47;10503558;28;20231;-66
2021/12/10 17:08:50;;;;;;;54.47;24.13;;;;;;;2.23;100.00;99544.91;10502502;28;20192;-67
2021/12/10 17:13:56;;;;;;;58.37;24.93;;;;;;;2.26;100.00;99548.34;10501862;28;20210;-64
2021/12/10 17:19:04;;;;;;;53.07;23.70;;;;;;;2.22;100.00;99556.88;10500105;28;20188;-65
2021/12/10 17:24:08;;;;;;;56.07;25.03;;;;;;;2.24;100.00;99560.28;10499769;28;20231;-65
2021/12/10 17:29:15;;;;;;;60.77;26.40;;;;;;;2.22;100.00;99567.09;10126921;27;10000378;-63
2021/12/10 17:34:26;;;;;;;54.90;25.37;;;;;;;2.10;100.00;99555.88;10457924;28;20196;-62
2021/12/10 17:39:35;;;;;;;61.80;27.60;;;;;;;2.10;100.00;99564.41;10470660;28;20211;-62
2021/12/10 17:44:42;;;;;;;58.97;25.73;;;;;;;2.14;100.00;99558.47;10486762;28;20254;-66
2021/12/10 17:49:49;;;;;;;58.30;25.80;;;;;;;2.21;100.00;99552.56;10498799;28;20196;-64
2021/12/10 17:54:55;;;;;;;58.77;25.40;;;;;;;2.18;100.00;99550.00;10498510;28;20276;-65
2021/12/10 18:00:02;;;;;;;59.63;26.37;;;;;;;2.19;100.00;99558.53;10498091;28;20651;-65
2021/12/10 18:05:13;;;;;;;52.13;24.03;;;;;;;2.15;100.00;99557.66;10498496;28;20222;-67
2021/12/10 18:10:20;;;;;;;55.37;25.00;;;;;;;2.14;100.00;99567.88;10497949;28;20208;-64
2021/12/10 18:15:26;;;;;;;58.10;25.67;;;;;;;2.14;100.00;99578.94;10497944;28;20234;-66
2021/12/10 18:20:35;;;;;;;58.37;25.13;;;;;;;2.15;100.00;99579.81;10498026;28;20203;-69
2021/12/10 18:25:43;;;;;;;52.70;24.60;;;;;;;2.11;100.00;99578.91;10500421;28;20310;-66
2021/12/10 18:30:48;;;;;;;55.40;25.23;;;;;;;2.15;100.00;99579.81;10538706;28;20561;-65
2021/12/10 18:35:55;;;;;;;53.63;24.50;;;;;;;2.14;100.00;99583.22;10539182;28;20556;-64
2021/12/10 18:41:05;;;;;;;66.83;30.00;;;;;;;2.15;100.00;99584.94;10539083;28;20223;-66
2021/12/10 18:46:11;;;;;;;52.03;25.40;;;;;;;2.08;100.00;99590.81;10538916;28;20219;-63
2021/12/10 18:51:18;;;;;;;60.87;26.60;;;;;;;2.05;100.00;99593.34;10538552;28;20689;-66
2021/12/10 18:56:25;;;;;;;61.43;26.23;;;;;;;2.10;100.00;99599.38;10507013;28;20224;-66
2021/12/10 19:01:31;;;;;;;59.00;26.67;;;;;;;2.06;100.00;99600.16;10476963;28;20605;-65
2021/12/10 19:06:40;;;;;;;56.50;26.10;;;;;;;2.04;100.00;99602.72;10454973;28;20224;-67
2021/12/10 19:11:47;;;;;;;66.30;26.60;;;;;;;2.08;100.00;99598.50;10455373;28;20223;-64
2021/12/10 19:16:55;;;;;;;61.33;26.00;;;;;;;2.10;100.00;99597.69;10454640;28;20673;-65
2021/12/10 19:22:04;;;;;;;57.77;25.67;;;;;;;2.06;100.00;99598.47;10453525;28;20219;-66
2021/12/10 19:27:12;;;;;;;60.80;28.27;;;;;;;2.03;100.00;99621.47;10485074;28;20227;-66
2021/12/10 19:32:20;;;;;;;69.53;29.83;;;;;;;2.08;100.00;99621.53;10538030;28;20537;-65
2021/12/10 19:37:30;;;;;;;64.30;28.30;;;;;;;2.09;100.00;99625.78;10538199;28;20216;-66
2021/12/10 19:42:37;;;;;;;68.00;27.77;;;;;;;2.04;100.00;99633.44;10542849;28;20227;-65
2021/12/10 19:47:45;;;;;;;60.00;27.53;;;;;;;2.03;100.00;99626.59;10545686;28;20556;-65
2021/12/10 19:52:53;;;;;;;60.70;26.60;;;;;;;2.03;100.00;99626.59;10482942;28;20300;-65
2021/12/10 19:57:58;;;;;;;60.43;26.33;;;;;;;2.06;100.00;99631.75;10461686;28;20654;-65
2021/12/10 20:03:08;;;;;;;55.47;26.57;;;;;;;2.04;100.00;99641.09;10461806;28;20299;-67
2021/12/10 20:08:16;;;;;;;59.23;26.83;;;;;;;2.05;100.00;99644.53;10461479;28;20221;-64
2021/12/10 20:13:24;;;;;;;64.43;26.50;;;;;;;2.04;100.00;99628.31;10461316;28;20220;-66
2021/12/10 20:18:32;;;;;;;66.90;30.23;;;;;;;2.12;100.00;99633.53;10461400;28;20646;-67
2021/12/10 20:23:43;;;;;;;61.57;25.90;;;;;;;2.15;100.00;99626.75;10460916;28;20227;-64
2021/12/10 20:28:54;;;;;;;66.23;27.70;;;;;;;2.13;100.00;99627.56;10527732;28;20215;-65
2021/12/10 20:34:02;;;;;;;52.23;23.07;;;;;;;2.14;100.00;99622.44;10511513;28;20219;-65
2021/12/10 20:39:13;;;;;;;50.47;22.20;;;;;;;2.08;100.00;99635.19;10501677;28;20216;-64
2021/12/10 20:44:19;;;;;;;54.53;23.63;;;;;;;2.03;100.00;99636.84;10501115;28;20223;-65
2021/12/10 20:49:27;;;;;;;61.73;25.93;;;;;;;2.02;100.00;99635.09;10501583;28;20692;-64
2021/12/10 20:54:37;;;;;;;56.80;25.03;;;;;;;2.05;100.00;99647.91;10500273;28;20303;-65
2021/12/10 20:59:44;;;;;;;56.43;23.70;;;;;;;2.00;100.00;99643.63;10500782;28;20302;-64
2021/12/10 21:04:51;;;;;;;58.33;23.83;;;;;;;2.01;100.00;99653.88;10500308;28;20646;-63
2021/12/10 21:10:07;;;;;;;57.10;24.83;;;;;;;1.99;100.00;99657.22;10500486;28;20582;-67
2021/12/10 21:15:15;;;;;;;61.10;25.23;;;;;;;1.88;100.00;99677.56;10483810;28;20793;-68
2021/12/10 21:20:27;;;;;;;58.33;24.87;;;;;;;1.87;100.00;99673.28;10466173;28;20235;-68
2021/12/10 21:25:35;;;;;;;61.23;24.80;;;;;;;1.86;100.00;99683.50;10480688;28;20236;-67
2021/12/10 21:30:42;;;;;;;62.60;26.23;;;;;;;1.87;100.00;99685.22;10539588;28;20223;-69
2021/12/10 21:35:49;;;;;;;60.30;24.67;;;;;;;1.82;100.00;99689.41;10497745;28;20224;-66
2021/12/10 21:41:00;;;;;;;65.23;25.70;;;;;;;1.82;100.00;99690.28;10459870;28;20205;-65
2021/12/10 21:46:06;;;;;;;60.40;24.43;;;;;;;1.78;100.00;99701.28;10465148;28;20299;-65
2021/12/10 21:51:15;;;;;;;66.70;26.07;;;;;;;1.82;100.00;99703.06;10491140;28;20224;-64
2021/12/10 21:56:23;;;;;;;68.23;26.90;;;;;;;1.85;100.00;99712.47;10497648;28;20223;-63
2021/12/10 22:01:33;;;;;;;55.90;23.70;;;;;;;1.86;100.00;99717.63;10490393;28;20679;-65
2021/12/10 22:06:53;;;;;;;65.27;25.60;;;;;;;1.84;100.00;99721.00;10496217;28;20247;-64
2021/12/10 22:12:05;;;;;;;65.17;25.57;;;;;;;1.83;100.00;99721.84;10498455;28;20247;-65
2021/12/10 22:17:12;;;;;;;57.17;24.37;;;;;;;1.71;100.00;99721.66;10475490;28;20307;-66
2021/12/10 22:22:20;;;;;;;58.13;25.30;;;;;;;1.62;100.00;99717.28;10456577;28;20308;-69
2021/12/10 22:27:28;;;;;;;64.90;27.30;;;;;;;1.66;100.00;99719.03;10491279;28;20246;-65
2021/12/10 22:32:36;;;;;;;56.87;25.63;;;;;;;1.68;100.00;99713.94;10538871;28;20215;-64
2021/12/10 22:37:45;;;;;;;58.13;24.20;;;;;;;1.57;100.00;99718.03;10520141;28;20215;-65
2021/12/10 22:42:52;;;;;;;60.87;26.00;;;;;;;1.57;100.00;99726.53;10468719;28;20216;-66
2021/12/10 22:48:00;;;;;;;59.13;25.87;;;;;;;1.61;100.00;99722.34;10472375;28;20661;-66
2021/12/10 22:53:05;;;;;;;65.97;25.87;;;;;;;1.60;100.00;99728.31;10497062;28;20673;-63
2021/12/10 22:58:15;;;;;;;64.53;25.70;;;;;;;1.57;100.00;99730.81;10496955;28;20300;-66
2021/12/10 23:03:22;;;;;;;72.40;25.40;;;;;;;1.64;100.00;99748.81;10496981;28;20239;-64
2021/12/10 23:08:32;;;;;;;63.43;26.43;;;;;;;1.54;100.00;99746.97;10459400;28;20227;-67
2021/12/10 23:13:43;;;;;;;64.60;26.27;;;;;;;1.44;100.00;99754.47;10455302;28;20293;-66
2021/12/10 23:18:51;;;;;;;69.30;26.40;;;;;;;1.43;100.00;99757.88;10462656;28;20213;-64
2021/12/10 23:24:10;;;;;;;74.63;27.43;;;;;;;1.48;100.00;99757.09;10463135;28;20221;-66
2021/12/10 23:29:18;;;;;;;71.97;25.90;;;;;;;1.45;100.00;99757.03;10528542;28;20222;-65
2021/12/10 23:34:22;;;;;;;73.03;28.70;;;;;;;1.45;100.00;99769.81;10546439;28;20249;-64